Delaware, Ohio
Current Conditions -  °F | °C
As of 2:56 PM on Friday 24 Oct 2014 (Local Time) from KDLZ Reporting Station
Clear Clear  
Wind Chill: 63°   Ceiling: Unl
Heat Index: 63°   Visibility: 10mi
Dew Point: 34°   Wind: 0mph
Humidity: 34%   Direction: NA
Pressure: 30.05"   Gusts: NA
Location:  40.3°N, 83.06°W
Report Text: KDLZ 241856Z AUTO 00000KT 10SM CLR 17/01 A3005 RMK AO2
Loading
Personal Weather Stations






























Interactive Weather Map New forecast layout! Learn more

10-Day Weather Forecast

Advertisements
Track Severe Weather on mobile